sensor_id;sensor_type;location;lat;lon;timestamp;pressure;altitude;pressure_sealevel;temperature;humidity
80733;BME280;70130;44.534;18.678;2023-12-20T00:02:08;98994.63;;;-0.52;100.00
80733;BME280;70130;44.534;18.678;2023-12-20T00:04:37;98988.00;;;-0.60;100.00
80733;BME280;70130;44.534;18.678;2023-12-20T00:07:02;99020.09;;;-0.36;100.00
80733;BME280;70130;44.534;18.678;2023-12-20T00:09:28;98990.63;;;-0.60;100.00
80733;BME280;70130;44.534;18.678;2023-12-20T00:12:00;98998.28;;;-0.58;100.00
80733;BME280;70130;44.534;18.678;2023-12-20T00:14:28;98988.25;;;-0.61;100.00
80733;BME280;70130;44.534;18.678;2023-12-20T00:16:54;99012.09;;;-0.46;100.00
80733;BME280;70130;44.534;18.678;2023-12-20T00:19:20;99015.50;;;-0.51;100.00
80733;BME280;70130;44.534;18.678;2023-12-20T00:22:04;99001.94;;;-0.59;100.00
80733;BME280;70130;44.534;18.678;2023-12-20T00:24:41;98999.06;;;-0.58;100.00
80733;BME280;70130;44.534;18.678;2023-12-20T00:27:10;99004.91;;;-0.56;100.00
80733;BME280;70130;44.534;18.678;2023-12-20T00:29:36;98989.47;;;-0.69;100.00
80733;BME280;70130;44.534;18.678;2023-12-20T00:32:14;98959.59;;;-0.84;100.00
80733;BME280;70130;44.534;18.678;2023-12-20T00:34:45;98984.22;;;-0.69;100.00
80733;BME280;70130;44.534;18.678;2023-12-20T00:37:14;98976.81;;;-0.72;100.00
80733;BME280;70130;44.534;18.678;2023-12-20T00:39:40;98988.19;;;-0.66;100.00
80733;BME280;70130;44.534;18.678;2023-12-20T00:42:11;98986.13;;;-0.64;100.00
80733;BME280;70130;44.534;18.678;2023-12-20T00:44:40;98961.16;;;-0.83;100.00
80733;BME280;70130;44.534;18.678;2023-12-20T00:47:06;98968.53;;;-0.85;100.00
80733;BME280;70130;44.534;18.678;2023-12-20T00:49:43;98973.56;;;-0.79;100.00
80733;BME280;70130;44.534;18.678;2023-12-20T00:52:12;98984.44;;;-0.75;100.00
80733;BME280;70130;44.534;18.678;2023-12-20T00:54:45;98980.00;;;-0.70;100.00
80733;BME280;70130;44.534;18.678;2023-12-20T00:57:14;98973.66;;;-0.69;100.00
80733;BME280;70130;44.534;18.678;2023-12-20T00:59:51;98945.53;;;-0.95;100.00
80733;BME280;70130;44.534;18.678;2023-12-20T01:02:20;98956.97;;;-0.84;100.00
80733;BME280;70130;44.534;18.678;2023-12-20T01:04:46;98949.81;;;-0.89;100.00
80733;BME280;70130;44.534;18.678;2023-12-20T01:07:15;98947.19;;;-0.89;100.00
80733;BME280;70130;44.534;18.678;2023-12-20T01:09:40;98963.78;;;-0.83;100.00
80733;BME280;70130;44.534;18.678;2023-12-20T01:12:09;98919.34;;;-1.07;100.00
80733;BME280;70130;44.534;18.678;2023-12-20T01:14:47;98963.34;;;-0.75;100.00
80733;BME280;70130;44.534;18.678;2023-12-20T01:17:16;98929.47;;;-0.94;100.00
80733;BME280;70130;44.534;18.678;2023-12-20T01:20:19;98965.25;;;-0.71;100.00
80733;BME280;70130;44.534;18.678;2023-12-20T01:22:48;98951.41;;;-0.83;100.00
80733;BME280;70130;44.534;18.678;2023-12-20T01:25:51;98948.06;;;-0.73;100.00
80733;BME280;70130;44.534;18.678;2023-12-20T01:28:19;98943.88;;;-0.74;100.00
80733;BME280;70130;44.534;18.678;2023-12-20T01:31:04;98938.28;;;-0.78;100.00
80733;BME280;70130;44.534;18.678;2023-12-20T01:33:32;98917.13;;;-0.88;100.00
80733;BME280;70130;44.534;18.678;2023-12-20T01:36:01;98928.25;;;-0.81;100.00
80733;BME280;70130;44.534;18.678;2023-12-20T01:38:27;98913.66;;;-0.94;100.00
80733;BME280;70130;44.534;18.678;2023-12-20T01:40:55;98893.34;;;-0.98;100.00
80733;BME280;70130;44.534;18.678;2023-12-20T01:43:21;98886.94;;;-1.07;100.00
80733;BME280;70130;44.534;18.678;2023-12-20T01:45:50;98874.53;;;-1.12;100.00
80733;BME280;70130;44.534;18.678;2023-12-20T01:48:19;98911.06;;;-0.89;100.00
80733;BME280;70130;44.534;18.678;2023-12-20T01:50:48;98887.78;;;-1.02;100.00
80733;BME280;70130;44.534;18.678;2023-12-20T01:53:27;98905.22;;;-0.96;100.00
80733;BME280;70130;44.534;18.678;2023-12-20T01:55:58;98882.72;;;-1.08;100.00
80733;BME280;70130;44.534;18.678;2023-12-20T01:58:24;98879.78;;;-1.12;100.00
80733;BME280;70130;44.534;18.678;2023-12-20T02:00:54;98894.09;;;-1.03;100.00
80733;BME280;70130;44.534;18.678;2023-12-20T02:03:32;98886.75;;;-1.01;100.00
80733;BME280;70130;44.534;18.678;2023-12-20T02:06:00;98865.84;;;-1.12;100.00
80733;BME280;70130;44.534;18.678;2023-12-20T02:08:51;98882.28;;;-1.00;100.00
80733;BME280;70130;44.534;18.678;2023-12-20T02:11:20;98853.13;;;-1.20;100.00
80733;BME280;70130;44.534;18.678;2023-12-20T02:14:02;98855.63;;;-1.09;100.00
80733;BME280;70130;44.534;18.678;2023-12-20T02:16:30;98830.31;;;-1.42;100.00
80733;BME280;70130;44.534;18.678;2023-12-20T02:18:56;98842.22;;;-1.34;100.00
80733;BME280;70130;44.534;18.678;2023-12-20T02:21:31;98835.91;;;-1.33;100.00
80733;BME280;70130;44.534;18.678;2023-12-20T02:24:00;98855.75;;;-1.20;100.00
80733;BME280;70130;44.534;18.678;2023-12-20T02:26:38;98832.22;;;-1.32;100.00
80733;BME280;70130;44.534;18.678;2023-12-20T02:29:07;98836.75;;;-1.27;100.00
80733;BME280;70130;44.534;18.678;2023-12-20T02:31:41;98838.09;;;-1.25;100.00
80733;BME280;70130;44.534;18.678;2023-12-20T02:34:13;98838.09;;;-1.25;100.00
80733;BME280;70130;44.534;18.678;2023-12-20T02:36:42;98815.06;;;-1.40;100.00
80733;BME280;70130;44.534;18.678;2023-12-20T02:39:07;98819.56;;;-1.35;100.00
80733;BME280;70130;44.534;18.678;2023-12-20T02:41:36;98833.31;;;-1.28;100.00
80733;BME280;70130;44.534;18.678;2023-12-20T02:44:03;98788.69;;;-1.45;100.00
80733;BME280;70130;44.534;18.678;2023-12-20T02:49:32;98818.06;;;-1.26;100.00
80733;BME280;70130;44.534;18.678;2023-12-20T02:52:00;98810.16;;;-1.26;100.00
80733;BME280;70130;44.534;18.678;2023-12-20T02:54:38;98778.38;;;-1.51;100.00
80733;BME280;70130;44.534;18.678;2023-12-20T02:57:07;98805.16;;;-1.27;100.00
80733;BME280;70130;44.534;18.678;2023-12-20T02:59:36;98805.94;;;-1.27;100.00
80733;BME280;70130;44.534;18.678;2023-12-20T03:02:20;98784.81;;;-1.37;100.00
80733;BME280;70130;44.534;18.678;2023-12-20T03:04:49;98790.09;;;-1.32;100.00
80733;BME280;70130;44.534;18.678;2023-12-20T03:07:36;98803.81;;;-1.30;100.00
80733;BME280;70130;44.534;18.678;2023-12-20T03:10:21;98793.00;;;-1.34;100.00
80733;BME280;70130;44.534;18.678;2023-12-20T03:12:50;98794.09;;;-1.29;100.00
80733;BME280;70130;44.534;18.678;2023-12-20T03:15:18;98781.34;;;-1.43;100.00
80733;BME280;70130;44.534;18.678;2023-12-20T03:18:02;98796.38;;;-1.38;100.00
80733;BME280;70130;44.534;18.678;2023-12-20T03:20:31;98770.25;;;-1.50;100.00
80733;BME280;70130;44.534;18.678;2023-12-20T03:23:21;98790.34;;;-1.39;100.00
80733;BME280;70130;44.534;18.678;2023-12-20T03:25:56;98777.63;;;-1.47;100.00
80733;BME280;70130;44.534;18.678;2023-12-20T03:28:26;98765.22;;;-1.51;100.00
80733;BME280;70130;44.534;18.678;2023-12-20T03:30:55;98748.97;;;-1.75;100.00
80733;BME280;70130;44.534;18.678;2023-12-20T03:36:27;98752.91;;;-1.73;100.00
80733;BME280;70130;44.534;18.678;2023-12-20T03:38:55;98754.56;;;-1.66;100.00
80733;BME280;70130;44.534;18.678;2023-12-20T03:41:21;98764.13;;;-1.55;100.00
80733;BME280;70130;44.534;18.678;2023-12-20T03:43:47;98733.19;;;-1.75;100.00
80733;BME280;70130;44.534;18.678;2023-12-20T03:46:12;98742.91;;;-1.76;100.00
80733;BME280;70130;44.534;18.678;2023-12-20T03:48:38;98757.53;;;-1.58;100.00
80733;BME280;70130;44.534;18.678;2023-12-20T03:51:06;98748.03;;;-1.64;100.00
80733;BME280;70130;44.534;18.678;2023-12-20T03:56:44;98752.47;;;-1.64;100.00
80733;BME280;70130;44.534;18.678;2023-12-20T03:59:13;98740.59;;;-1.67;100.00
80733;BME280;70130;44.534;18.678;2023-12-20T04:05:16;98751.78;;;-1.55;100.00
80733;BME280;70130;44.534;18.678;2023-12-20T04:08:01;98738.56;;;-1.60;100.00
80733;BME280;70130;44.534;18.678;2023-12-20T04:10:42;98744.88;;;-1.61;100.00
80733;BME280;70130;44.534;18.678;2023-12-20T04:13:10;98746.97;;;-1.63;100.00
80733;BME280;70130;44.534;18.678;2023-12-20T04:15:54;98741.97;;;-1.64;100.00
80733;BME280;70130;44.534;18.678;2023-12-20T04:18:23;98741.72;;;-1.58;100.00
80733;BME280;70130;44.534;18.678;2023-12-20T04:20:55;98721.41;;;-1.67;100.00
80733;BME280;70130;44.534;18.678;2023-12-20T04:26:26;98724.63;;;-1.60;100.00
80733;BME280;70130;44.534;18.678;2023-12-20T04:28:55;98733.94;;;-1.80;100.00
80733;BME280;70130;44.534;18.678;2023-12-20T04:31:21;98725.28;;;-1.75;100.00
80733;BME280;70130;44.534;18.678;2023-12-20T04:34:14;98725.84;;;-1.73;100.00
80733;BME280;70130;44.534;18.678;2023-12-20T04:36:40;98698.84;;;-1.90;100.00
80733;BME280;70130;44.534;18.678;2023-12-20T04:39:34;98723.47;;;-1.75;100.00
80733;BME280;70130;44.534;18.678;2023-12-20T04:41:59;98683.78;;;-2.00;100.00
80733;BME280;70130;44.534;18.678;2023-12-20T04:44:47;98721.88;;;-1.76;100.00
80733;BME280;70130;44.534;18.678;2023-12-20T04:47:12;98700.94;;;-1.92;100.00
80733;BME280;70130;44.534;18.678;2023-12-20T04:49:50;98723.41;;;-1.80;100.00
80733;BME280;70130;44.534;18.678;2023-12-20T04:52:34;98727.88;;;-1.80;100.00
80733;BME280;70130;44.534;18.678;2023-12-20T04:55:03;98712.25;;;-1.92;100.00
80733;BME280;70130;44.534;18.678;2023-12-20T04:57:41;98713.84;;;-1.91;100.00
80733;BME280;70130;44.534;18.678;2023-12-20T05:03:50;98710.69;;;-1.93;100.00
80733;BME280;70130;44.534;18.678;2023-12-20T05:06:16;98710.94;;;-1.94;100.00
80733;BME280;70130;44.534;18.678;2023-12-20T05:08:41;98709.63;;;-1.92;100.00
80733;BME280;70130;44.534;18.678;2023-12-20T05:14:13;98702.28;;;-1.90;100.00
80733;BME280;70130;44.534;18.678;2023-12-20T05:16:39;98719.09;;;-1.91;100.00
80733;BME280;70130;44.534;18.678;2023-12-20T05:19:05;98716.47;;;-1.91;100.00
80733;BME280;70130;44.534;18.678;2023-12-20T05:21:50;98716.22;;;-1.89;100.00
80733;BME280;70130;44.534;18.678;2023-12-20T05:24:52;98722.56;;;-1.85;100.00
80733;BME280;70130;44.534;18.678;2023-12-20T05:27:24;98720.97;;;-1.86;100.00
80733;BME280;70130;44.534;18.678;2023-12-20T05:32:56;98716.00;;;-1.88;100.00
80733;BME280;70130;44.534;18.678;2023-12-20T05:35:22;98693.25;;;-1.99;100.00
80733;BME280;70130;44.534;18.678;2023-12-20T05:38:25;98705.72;;;-1.89;100.00
80733;BME280;70130;44.534;18.678;2023-12-20T05:44:13;98700.44;;;-1.89;100.00
80733;BME280;70130;44.534;18.678;2023-12-20T05:46:42;98663.75;;;-2.06;100.00
80733;BME280;70130;44.534;18.678;2023-12-20T05:49:08;98677.50;;;-1.99;100.00
80733;BME280;70130;44.534;18.678;2023-12-20T05:51:39;98684.38;;;-1.93;100.00
80733;BME280;70130;44.534;18.678;2023-12-20T05:54:05;98672.19;;;-2.04;100.00
80733;BME280;70130;44.534;18.678;2023-12-20T05:59:49;98656.31;;;-2.14;100.00
80733;BME280;70130;44.534;18.678;2023-12-20T06:02:15;98695.16;;;-1.94;100.00
80733;BME280;70130;44.534;18.678;2023-12-20T06:04:46;98666.38;;;-2.06;99.79
80733;BME280;70130;44.534;18.678;2023-12-20T06:07:12;98674.97;;;-2.15;99.67
80733;BME280;70130;44.534;18.678;2023-12-20T06:09:38;98667.28;;;-2.22;100.00
80733;BME280;70130;44.534;18.678;2023-12-20T06:12:04;98675.19;;;-2.22;100.00
80733;BME280;70130;44.534;18.678;2023-12-20T06:14:30;98679.19;;;-2.14;100.00
80733;BME280;70130;44.534;18.678;2023-12-20T06:16:59;98677.81;;;-2.17;100.00
80733;BME280;70130;44.534;18.678;2023-12-20T06:19:25;98657.44;;;-2.32;100.00
80733;BME280;70130;44.534;18.678;2023-12-20T06:21:50;98649.66;;;-2.22;100.00
80733;BME280;70130;44.534;18.678;2023-12-20T06:24:16;98661.03;;;-2.16;100.00
80733;BME280;70130;44.534;18.678;2023-12-20T06:26:41;98670.03;;;-2.07;100.00
80733;BME280;70130;44.534;18.678;2023-12-20T06:29:08;98649.81;;;-2.06;100.00
80733;BME280;70130;44.534;18.678;2023-12-20T06:31:33;98628.41;;;-2.20;100.00
80733;BME280;70130;44.534;18.678;2023-12-20T06:33:59;98644.50;;;-2.11;100.00
80733;BME280;70130;44.534;18.678;2023-12-20T06:36:26;98638.66;;;-2.19;100.00
80733;BME280;70130;44.534;18.678;2023-12-20T06:38:52;98634.69;;;-2.21;100.00
80733;BME280;70130;44.534;18.678;2023-12-20T06:41:17;98671.34;;;-2.09;100.00
80733;BME280;70130;44.534;18.678;2023-12-20T06:43:43;98654.53;;;-2.08;100.00
80733;BME280;70130;44.534;18.678;2023-12-20T06:46:10;98646.13;;;-2.05;100.00
80733;BME280;70130;44.534;18.678;2023-12-20T06:48:38;98662.50;;;-1.98;100.00
80733;BME280;70130;44.534;18.678;2023-12-20T06:51:05;98673.41;;;-1.85;100.00
80733;BME280;70130;44.534;18.678;2023-12-20T06:53:30;98672.84;;;-1.87;100.00
80733;BME280;70130;44.534;18.678;2023-12-20T06:55:56;98651.56;;;-1.85;100.00
80733;BME280;70130;44.534;18.678;2023-12-20T06:58:22;98665.53;;;-1.80;100.00
80733;BME280;70130;44.534;18.678;2023-12-20T07:00:50;98660.31;;;-1.75;100.00
80733;BME280;70130;44.534;18.678;2023-12-20T07:03:17;98649.56;;;-1.73;100.00
80733;BME280;70130;44.534;18.678;2023-12-20T07:05:43;98646.13;;;-1.73;100.00
80733;BME280;70130;44.534;18.678;2023-12-20T07:08:08;98613.13;;;-1.91;100.00
80733;BME280;70130;44.534;18.678;2023-12-20T07:10:34;98654.09;;;-1.63;100.00
80733;BME280;70130;44.534;18.678;2023-12-20T07:13:00;98647.50;;;-1.66;100.00
80733;BME280;70130;44.534;18.678;2023-12-20T07:15:26;98645.13;;;-1.62;99.53
80733;BME280;70130;44.534;18.678;2023-12-20T07:17:52;98642.44;;;-1.73;99.39
80733;BME280;70130;44.534;18.678;2023-12-20T07:20:18;98657.28;;;-1.56;99.57
80733;BME280;70130;44.534;18.678;2023-12-20T07:22:44;98656.28;;;-1.50;99.48
80733;BME280;70130;44.534;18.678;2023-12-20T07:25:09;98638.31;;;-1.63;99.12
80733;BME280;70130;44.534;18.678;2023-12-20T07:27:38;98643.13;;;-1.50;98.98
80733;BME280;70130;44.534;18.678;2023-12-20T07:30:04;98649.25;;;-1.40;98.69
80733;BME280;70130;44.534;18.678;2023-12-20T07:32:30;98636.31;;;-1.46;98.67
80733;BME280;70130;44.534;18.678;2023-12-20T07:34:56;98626.31;;;-1.49;98.20
80733;BME280;70130;44.534;18.678;2023-12-20T07:37:21;98648.00;;;-1.27;98.01
80733;BME280;70130;44.534;18.678;2023-12-20T07:39:47;98643.25;;;-1.30;97.87
80733;BME280;70130;44.534;18.678;2023-12-20T07:42:13;98643.78;;;-1.28;98.07
80733;BME280;70130;44.534;18.678;2023-12-20T07:44:38;98635.91;;;-1.23;97.80
80733;BME280;70130;44.534;18.678;2023-12-20T07:47:04;98634.31;;;-1.29;97.68
80733;BME280;70130;44.534;18.678;2023-12-20T07:49:31;98628.53;;;-1.26;97.71
80733;BME280;70130;44.534;18.678;2023-12-20T07:51:57;98618.25;;;-1.27;97.62
80733;BME280;70130;44.534;18.678;2023-12-20T07:54:22;98630.16;;;-1.20;97.97
80733;BME280;70130;44.534;18.678;2023-12-20T07:56:48;98629.66;;;-1.07;98.12
80733;BME280;70130;44.534;18.678;2023-12-20T07:59:14;98630.75;;;-0.98;97.88
80733;BME280;70130;44.534;18.678;2023-12-20T08:01:40;98632.94;;;-0.84;97.88
80733;BME280;70130;44.534;18.678;2023-12-20T08:04:05;98627.13;;;-0.81;97.93
80733;BME280;70130;44.534;18.678;2023-12-20T08:06:31;98637.19;;;-0.68;98.05
80733;BME280;70130;44.534;18.678;2023-12-20T08:08:57;98617.41;;;-0.76;97.92
80733;BME280;70130;44.534;18.678;2023-12-20T08:15:10;98611.13;;;-0.65;97.88
80733;BME280;70130;44.534;18.678;2023-12-20T08:17:40;98612.72;;;-0.54;97.44
80733;BME280;70130;44.534;18.678;2023-12-20T08:20:08;98596.88;;;-0.64;97.58
80733;BME280;70130;44.534;18.678;2023-12-20T08:22:34;98605.59;;;-0.48;97.36
80733;BME280;70130;44.534;18.678;2023-12-20T08:25:00;98635.19;;;-0.26;97.32
80733;BME280;70130;44.534;18.678;2023-12-20T08:27:26;98631.22;;;-0.18;97.35
80733;BME280;70130;44.534;18.678;2023-12-20T08:29:52;98624.38;;;-0.19;97.16
80733;BME280;70130;44.534;18.678;2023-12-20T08:32:18;98604.59;;;-0.22;96.85
80733;BME280;70130;44.534;18.678;2023-12-20T08:34:43;98606.19;;;-0.16;96.76
80733;BME280;70130;44.534;18.678;2023-12-20T08:37:09;98624.38;;;0.11;96.79
80733;BME280;70130;44.534;18.678;2023-12-20T08:39:34;98633.63;;;0.14;96.67
80733;BME280;70130;44.534;18.678;2023-12-20T08:42:00;98630.19;;;0.18;96.44
80733;BME280;70130;44.534;18.678;2023-12-20T08:44:26;98621.22;;;0.19;96.35
80733;BME280;70130;44.534;18.678;2023-12-20T08:46:51;98621.22;;;0.29;96.51
80733;BME280;70130;44.534;18.678;2023-12-20T08:49:17;98617.78;;;0.34;96.88
80733;BME280;70130;44.534;18.678;2023-12-20T08:51:43;98619.31;;;0.45;96.97
80733;BME280;70130;44.534;18.678;2023-12-20T08:54:09;98600.34;;;0.43;97.16
80733;BME280;70130;44.534;18.678;2023-12-20T08:56:35;98611.09;;;0.67;97.75
80733;BME280;70130;44.534;18.678;2023-12-20T08:59:00;98602.38;;;0.71;98.02
80733;BME280;70130;44.534;18.678;2023-12-20T09:01:26;98589.72;;;0.73;98.09
80733;BME280;70130;44.534;18.678;2023-12-20T09:03:51;98591.78;;;0.81;98.12
80733;BME280;70130;44.534;18.678;2023-12-20T09:06:17;98601.25;;;0.98;98.21
80733;BME280;70130;44.534;18.678;2023-12-20T09:08:43;98600.13;;;1.04;98.32
80733;BME280;70130;44.534;18.678;2023-12-20T09:11:10;98597.97;;;1.16;98.31
80733;BME280;70130;44.534;18.678;2023-12-20T09:13:36;98587.13;;;1.22;98.10
80733;BME280;70130;44.534;18.678;2023-12-20T09:16:02;98586.53;;;1.30;97.99
80733;BME280;70130;44.534;18.678;2023-12-20T09:18:29;98579.59;;;1.40;97.93
80733;BME280;70130;44.534;18.678;2023-12-20T09:20:56;98584.00;;;1.54;98.07
80733;BME280;70130;44.534;18.678;2023-12-20T09:23:21;98571.28;;;1.61;97.86
80733;BME280;70130;44.534;18.678;2023-12-20T09:25:49;98574.38;;;1.68;97.60
80733;BME280;70130;44.534;18.678;2023-12-20T09:28:21;98558.69;;;1.82;96.71
80733;BME280;70130;44.534;18.678;2023-12-20T09:30:47;98569.09;;;2.02;96.13
80733;BME280;70130;44.534;18.678;2023-12-20T09:33:13;98542.63;;;2.02;95.87
80733;BME280;70130;44.534;18.678;2023-12-20T09:35:39;98543.31;;;2.13;95.67
80733;BME280;70130;44.534;18.678;2023-12-20T09:38:05;98514.25;;;2.08;95.74
80733;BME280;70130;44.534;18.678;2023-12-20T09:40:32;98537.03;;;2.33;95.94
80733;BME280;70130;44.534;18.678;2023-12-20T09:43:10;98513.44;;;2.36;95.42
80733;BME280;70130;44.534;18.678;2023-12-20T09:45:36;98492.59;;;2.30;95.14
80733;BME280;70130;44.534;18.678;2023-12-20T09:48:03;98497.72;;;2.45;94.84
80733;BME280;70130;44.534;18.678;2023-12-20T09:50:30;98508.16;;;2.60;94.85
80733;BME280;70130;44.534;18.678;2023-12-20T09:52:58;98508.88;;;2.66;94.96
80733;BME280;70130;44.534;18.678;2023-12-20T09:55:25;98500.94;;;2.66;93.89
80733;BME280;70130;44.534;18.678;2023-12-20T09:57:52;98515.78;;;2.85;93.53
80733;BME280;70130;44.534;18.678;2023-12-20T10:00:18;98514.63;;;2.91;93.04
80733;BME280;70130;44.534;18.678;2023-12-20T10:02:59;98504.25;;;2.95;92.49
80733;BME280;70130;44.534;18.678;2023-12-20T10:05:30;98515.06;;;3.17;91.89
80733;BME280;70130;44.534;18.678;2023-12-20T10:07:56;98511.28;;;3.23;91.29
80733;BME280;70130;44.534;18.678;2023-12-20T10:10:22;98506.50;;;3.25;91.02
80733;BME280;70130;44.534;18.678;2023-12-20T10:13:05;98513.78;;;3.33;90.56
80733;BME280;70130;44.534;18.678;2023-12-20T10:15:35;98514.72;;;3.42;90.12
80733;BME280;70130;44.534;18.678;2023-12-20T10:18:02;98495.28;;;3.47;89.44
80733;BME280;70130;44.534;18.678;2023-12-20T10:20:29;98500.69;;;3.56;88.79
80733;BME280;70130;44.534;18.678;2023-12-20T10:22:58;98485.28;;;3.58;87.85
80733;BME280;70130;44.534;18.678;2023-12-20T10:25:25;98484.84;;;3.69;87.81
80733;BME280;70130;44.534;18.678;2023-12-20T10:28:09;98484.44;;;3.76;86.74
80733;BME280;70130;44.534;18.678;2023-12-20T10:30:34;98486.94;;;3.86;87.71
80733;BME280;70130;44.534;18.678;2023-12-20T10:33:01;98474.81;;;3.80;87.32
80733;BME280;70130;44.534;18.678;2023-12-20T10:35:27;98483.72;;;3.89;87.26
80733;BME280;70130;44.534;18.678;2023-12-20T10:37:55;98485.50;;;3.94;87.36
80733;BME280;70130;44.534;18.678;2023-12-20T10:40:27;98485.69;;;3.97;87.09
80733;BME280;70130;44.534;18.678;2023-12-20T10:42:56;98486.28;;;3.94;87.41
80733;BME280;70130;44.534;18.678;2023-12-20T10:45:41;98481.44;;;3.96;87.87
80733;BME280;70130;44.534;18.678;2023-12-20T10:48:07;98462.97;;;3.91;87.98
80733;BME280;70130;44.534;18.678;2023-12-20T10:50:37;98458.16;;;3.93;87.86
80733;BME280;70130;44.534;18.678;2023-12-20T10:53:06;98467.19;;;4.06;88.14
80733;BME280;70130;44.534;18.678;2023-12-20T10:55:32;98466.91;;;4.07;88.55
80733;BME280;70130;44.534;18.678;2023-12-20T10:58:08;98426.41;;;3.88;89.66
80733;BME280;70130;44.534;18.678;2023-12-20T11:00:39;98459.16;;;4.11;89.72
80733;BME280;70130;44.534;18.678;2023-12-20T11:03:09;98463.78;;;4.19;90.10
80733;BME280;70130;44.534;18.678;2023-12-20T11:06:01;98464.47;;;4.24;90.43
80733;BME280;70130;44.534;18.678;2023-12-20T11:11:39;98448.63;;;4.19;89.72
80733;BME280;70130;44.534;18.678;2023-12-20T11:14:16;98443.81;;;4.21;89.56
80733;BME280;70130;44.534;18.678;2023-12-20T11:16:48;98461.13;;;4.32;89.03
80733;BME280;70130;44.534;18.678;2023-12-20T11:19:14;98418.25;;;4.12;88.55
80733;BME280;70130;44.534;18.678;2023-12-20T11:21:40;98457.19;;;4.44;89.06
80733;BME280;70130;44.534;18.678;2023-12-20T11:24:07;98457.19;;;4.44;89.36
80733;BME280;70130;44.534;18.678;2023-12-20T11:26:33;98458.75;;;4.45;90.52
80733;BME280;70130;44.534;18.678;2023-12-20T11:34:56;98447.91;;;4.55;89.59
80733;BME280;70130;44.534;18.678;2023-12-20T11:37:37;98456.75;;;4.64;89.52
80733;BME280;70130;44.534;18.678;2023-12-20T11:42:33;98440.25;;;4.67;89.60
80733;BME280;70130;44.534;18.678;2023-12-20T11:45:02;98449.25;;;4.93;88.88
80733;BME280;70130;44.534;18.678;2023-12-20T11:47:34;98430.66;;;5.15;88.13
80733;BME280;70130;44.534;18.678;2023-12-20T11:50:03;98453.81;;;5.37;87.27
80733;BME280;70130;44.534;18.678;2023-12-20T11:52:33;98432.16;;;5.30;86.84
80733;BME280;70130;44.534;18.678;2023-12-20T11:55:03;98425.47;;;5.33;86.55
80733;BME280;70130;44.534;18.678;2023-12-20T11:57:33;98425.81;;;5.40;85.93
80733;BME280;70130;44.534;18.678;2023-12-20T12:00:01;98436.09;;;5.55;86.75
80733;BME280;70130;44.534;18.678;2023-12-20T12:02:37;98441.13;;;5.56;87.21
80733;BME280;70130;44.534;18.678;2023-12-20T12:05:03;98434.09;;;5.60;86.83
80733;BME280;70130;44.534;18.678;2023-12-20T12:07:33;98442.25;;;5.64;86.99
80733;BME280;70130;44.534;18.678;2023-12-20T12:09:59;98430.94;;;5.58;86.98
80733;BME280;70130;44.534;18.678;2023-12-20T12:12:24;98433.00;;;5.61;86.34
80733;BME280;70130;44.534;18.678;2023-12-20T12:14:54;98418.66;;;5.49;85.69
80733;BME280;70130;44.534;18.678;2023-12-20T12:17:22;98442.84;;;5.61;85.36
80733;BME280;70130;44.534;18.678;2023-12-20T12:19:47;98442.41;;;5.68;84.93
80733;BME280;70130;44.534;18.678;2023-12-20T12:22:14;98421.81;;;5.51;84.94
80733;BME280;70130;44.534;18.678;2023-12-20T12:24:45;98435.47;;;5.58;85.34
80733;BME280;70130;44.534;18.678;2023-12-20T12:27:12;98413.78;;;5.42;87.20
80733;BME280;70130;44.534;18.678;2023-12-20T12:29:38;98431.00;;;5.45;87.21
80733;BME280;70130;44.534;18.678;2023-12-20T12:32:08;98403.41;;;5.32;87.50
80733;BME280;70130;44.534;18.678;2023-12-20T12:34:34;98424.47;;;5.51;87.36
80733;BME280;70130;44.534;18.678;2023-12-20T12:37:01;98428.47;;;5.62;85.79
80733;BME280;70130;44.534;18.678;2023-12-20T12:39:26;98442.16;;;5.78;85.00
80733;BME280;70130;44.534;18.678;2023-12-20T12:41:53;98434.22;;;5.86;84.28
80733;BME280;70130;44.534;18.678;2023-12-20T12:44:19;98428.66;;;5.96;81.69
80733;BME280;70130;44.534;18.678;2023-12-20T12:46:48;98430.31;;;6.23;81.61
80733;BME280;70130;44.534;18.678;2023-12-20T12:49:22;98453.75;;;6.43;82.52
80733;BME280;70130;44.534;18.678;2023-12-20T12:51:48;98450.22;;;6.65;81.36
80733;BME280;70130;44.534;18.678;2023-12-20T12:54:14;98444.88;;;6.82;81.33
80733;BME280;70130;44.534;18.678;2023-12-20T12:56:42;98449.47;;;6.99;80.52
80733;BME280;70130;44.534;18.678;2023-12-20T12:59:08;98425.13;;;6.83;80.43
80733;BME280;70130;44.534;18.678;2023-12-20T13:01:34;98443.97;;;6.96;79.77
80733;BME280;70130;44.534;18.678;2023-12-20T13:03:59;98436.59;;;6.92;80.10
80733;BME280;70130;44.534;18.678;2023-12-20T13:06:26;98448.81;;;6.85;80.62
80733;BME280;70130;44.534;18.678;2023-12-20T13:08:52;98453.38;;;6.84;80.83
80733;BME280;70130;44.534;18.678;2023-12-20T13:11:18;98461.03;;;6.86;81.63
80733;BME280;70130;44.534;18.678;2023-12-20T13:20:38;98476.53;;;6.58;82.82
80733;BME280;70130;44.534;18.678;2023-12-20T13:23:05;98470.53;;;6.53;82.95
80733;BME280;70130;44.534;18.678;2023-12-20T13:25:31;98489.22;;;6.53;83.53
80733;BME280;70130;44.534;18.678;2023-12-20T13:27:58;98468.66;;;6.44;83.98
80733;BME280;70130;44.534;18.678;2023-12-20T13:30:24;98460.00;;;6.39;84.66
80733;BME280;70130;44.534;18.678;2023-12-20T13:32:50;98478.50;;;6.35;85.33
80733;BME280;70130;44.534;18.678;2023-12-20T13:35:16;98475.97;;;6.30;85.14
80733;BME280;70130;44.534;18.678;2023-12-20T13:37:41;98482.03;;;6.22;85.55
80733;BME280;70130;44.534;18.678;2023-12-20T13:40:08;98454.31;;;5.92;85.67
80733;BME280;70130;44.534;18.678;2023-12-20T13:42:33;98451.50;;;5.89;85.71
80733;BME280;70130;44.534;18.678;2023-12-20T13:44:59;98471.44;;;6.00;84.98
80733;BME280;70130;44.534;18.678;2023-12-20T13:47:25;98485.44;;;6.05;84.94
80733;BME280;70130;44.534;18.678;2023-12-20T13:49:51;98495.34;;;6.22;83.15
80733;BME280;70130;44.534;18.678;2023-12-20T13:52:16;98501.41;;;6.36;78.49
80733;BME280;70130;44.534;18.678;2023-12-20T13:54:42;98467.00;;;6.66;74.70